sensor_id;sensor_type;location;lat;lon;timestamp;P1;durP1;ratioP1;P2;durP2;ratioP2
16177;SDS011;8195;51.220;9.746;2024-03-23T00:57:24;7.10;;;6.40;;
16177;SDS011;8195;51.220;9.746;2024-03-23T01:01:44;6.90;;;5.60;;
16177;SDS011;8195;51.220;9.746;2024-03-23T01:06:05;6.33;;;5.53;;
16177;SDS011;8195;51.220;9.746;2024-03-23T01:10:25;6.37;;;5.67;;
16177;SDS011;8195;51.220;9.746;2024-03-23T01:14:45;5.33;;;4.83;;
16177;SDS011;8195;51.220;9.746;2024-03-23T01:19:06;5.50;;;4.93;;
16177;SDS011;8195;51.220;9.746;2024-03-23T01:23:26;6.60;;;5.17;;
16177;SDS011;8195;51.220;9.746;2024-03-23T01:27:46;5.37;;;4.53;;
16177;SDS011;8195;51.220;9.746;2024-03-23T01:32:06;4.97;;;4.57;;
16177;SDS011;8195;51.220;9.746;2024-03-23T01:36:27;5.10;;;4.60;;
16177;SDS011;8195;51.220;9.746;2024-03-23T01:40:47;5.57;;;4.90;;
16177;SDS011;8195;51.220;9.746;2024-03-23T01:45:07;5.87;;;4.70;;
16177;SDS011;8195;51.220;9.746;2024-03-23T01:49:28;4.97;;;4.10;;
16177;SDS011;8195;51.220;9.746;2024-03-23T01:53:49;5.30;;;4.80;;
16177;SDS011;8195;51.220;9.746;2024-03-23T01:58:09;5.10;;;4.60;;
16177;SDS011;8195;51.220;9.746;2024-03-23T02:02:30;5.33;;;4.33;;
16177;SDS011;8195;51.220;9.746;2024-03-23T02:06:50;5.67;;;4.63;;
16177;SDS011;8195;51.220;9.746;2024-03-23T02:11:10;5.67;;;4.73;;
16177;SDS011;8195;51.220;9.746;2024-03-23T02:15:31;5.67;;;5.07;;
16177;SDS011;8195;51.220;9.746;2024-03-23T02:19:51;6.83;;;6.00;;
16177;SDS011;8195;51.220;9.746;2024-03-23T02:24:11;6.97;;;6.27;;
16177;SDS011;8195;51.220;9.746;2024-03-23T02:28:31;6.47;;;5.87;;
16177;SDS011;8195;51.220;9.746;2024-03-23T02:32:52;7.93;;;7.20;;
16177;SDS011;8195;51.220;9.746;2024-03-23T02:37:12;8.20;;;6.87;;
16177;SDS011;8195;51.220;9.746;2024-03-23T02:41:32;7.90;;;6.57;;
16177;SDS011;8195;51.220;9.746;2024-03-23T02:45:53;8.60;;;6.37;;
16177;SDS011;8195;51.220;9.746;2024-03-23T02:50:13;9.13;;;6.60;;
16177;SDS011;8195;51.220;9.746;2024-03-23T02:54:33;7.23;;;6.30;;
16177;SDS011;8195;51.220;9.746;2024-03-23T02:58:54;9.77;;;6.23;;
16177;SDS011;8195;51.220;9.746;2024-03-23T03:03:14;8.73;;;5.30;;
16177;SDS011;8195;51.220;9.746;2024-03-23T03:07:34;8.27;;;5.90;;
16177;SDS011;8195;51.220;9.746;2024-03-23T03:11:54;8.90;;;5.60;;
16177;SDS011;8195;51.220;9.746;2024-03-23T03:16:15;6.57;;;4.80;;
16177;SDS011;8195;51.220;9.746;2024-03-23T03:20:39;7.77;;;5.57;;
16177;SDS011;8195;51.220;9.746;2024-03-23T03:24:59;9.87;;;4.60;;
16177;SDS011;8195;51.220;9.746;2024-03-23T03:29:19;5.93;;;4.33;;
16177;SDS011;8195;51.220;9.746;2024-03-23T03:33:40;7.50;;;4.60;;
16177;SDS011;8195;51.220;9.746;2024-03-23T03:38:00;7.73;;;5.07;;
16177;SDS011;8195;51.220;9.746;2024-03-23T03:42:20;7.50;;;5.00;;
16177;SDS011;8195;51.220;9.746;2024-03-23T03:46:40;9.00;;;5.07;;
16177;SDS011;8195;51.220;9.746;2024-03-23T03:51:01;8.20;;;5.30;;
16177;SDS011;8195;51.220;9.746;2024-03-23T03:55:21;6.70;;;4.77;;
16177;SDS011;8195;51.220;9.746;2024-03-23T03:59:41;5.87;;;4.87;;
16177;SDS011;8195;51.220;9.746;2024-03-23T04:04:02;7.27;;;4.87;;
16177;SDS011;8195;51.220;9.746;2024-03-23T04:08:22;5.90;;;5.30;;
16177;SDS011;8195;51.220;9.746;2024-03-23T04:12:43;4.77;;;3.80;;
16177;SDS011;8195;51.220;9.746;2024-03-23T04:17:03;5.63;;;4.33;;
16177;SDS011;8195;51.220;9.746;2024-03-23T04:21:24;4.03;;;3.63;;
16177;SDS011;8195;51.220;9.746;2024-03-23T04:25:44;4.77;;;3.93;;
16177;SDS011;8195;51.220;9.746;2024-03-23T04:30:05;5.30;;;3.23;;
16177;SDS011;8195;51.220;9.746;2024-03-23T04:34:25;2.50;;;2.30;;
16177;SDS011;8195;51.220;9.746;2024-03-23T04:38:46;3.53;;;2.30;;
16177;SDS011;8195;51.220;9.746;2024-03-23T04:43:06;2.10;;;1.87;;
16177;SDS011;8195;51.220;9.746;2024-03-23T04:47:26;1.63;;;1.50;;
16177;SDS011;8195;51.220;9.746;2024-03-23T04:51:47;2.33;;;1.40;;
16177;SDS011;8195;51.220;9.746;2024-03-23T04:56:07;1.80;;;1.57;;
16177;SDS011;8195;51.220;9.746;2024-03-23T05:00:27;2.80;;;1.30;;
16177;SDS011;8195;51.220;9.746;2024-03-23T05:04:48;0.90;;;0.90;;
16177;SDS011;8195;51.220;9.746;2024-03-23T05:09:08;1.93;;;1.67;;
16177;SDS011;8195;51.220;9.746;2024-03-23T05:13:28;1.67;;;1.20;;
16177;SDS011;8195;51.220;9.746;2024-03-23T05:17:48;1.50;;;1.20;;
16177;SDS011;8195;51.220;9.746;2024-03-23T05:22:09;1.10;;;1.00;;
16177;SDS011;8195;51.220;9.746;2024-03-23T05:26:29;1.10;;;1.00;;
16177;SDS011;8195;51.220;9.746;2024-03-23T05:30:53;1.10;;;1.00;;
16177;SDS011;8195;51.220;9.746;2024-03-23T05:35:13;1.10;;;1.00;;
16177;SDS011;8195;51.220;9.746;2024-03-23T05:39:34;1.30;;;1.00;;
16177;SDS011;8195;51.220;9.746;2024-03-23T05:43:54;1.73;;;1.10;;
16177;SDS011;8195;51.220;9.746;2024-03-23T05:48:14;2.30;;;1.43;;
16177;SDS011;8195;51.220;9.746;2024-03-23T05:52:35;1.17;;;0.90;;
16177;SDS011;8195;51.220;9.746;2024-03-23T05:56:55;1.10;;;1.00;;
16177;SDS011;8195;51.220;9.746;2024-03-23T06:01:15;1.10;;;1.00;;
16177;SDS011;8195;51.220;9.746;2024-03-23T06:05:36;1.00;;;1.00;;
16177;SDS011;8195;51.220;9.746;2024-03-23T06:09:57;0.90;;;0.90;;
16177;SDS011;8195;51.220;9.746;2024-03-23T06:14:17;1.20;;;1.10;;
16177;SDS011;8195;51.220;9.746;2024-03-23T06:18:37;1.10;;;1.00;;
16177;SDS011;8195;51.220;9.746;2024-03-23T06:23:00;1.40;;;1.30;;
16177;SDS011;8195;51.220;9.746;2024-03-23T06:27:21;1.30;;;1.20;;
16177;SDS011;8195;51.220;9.746;2024-03-23T06:31:41;0.97;;;0.90;;
16177;SDS011;8195;51.220;9.746;2024-03-23T06:36:05;0.80;;;0.80;;
16177;SDS011;8195;51.220;9.746;2024-03-23T06:40:26;1.03;;;1.00;;
16177;SDS011;8195;51.220;9.746;2024-03-23T06:44:49;1.30;;;1.00;;
16177;SDS011;8195;51.220;9.746;2024-03-23T06:49:10;0.90;;;0.90;;
16177;SDS011;8195;51.220;9.746;2024-03-23T06:53:30;1.80;;;1.30;;
16177;SDS011;8195;51.220;9.746;2024-03-23T06:57:50;1.40;;;1.30;;
16177;SDS011;8195;51.220;9.746;2024-03-23T07:02:11;1.37;;;1.27;;
16177;SDS011;8195;51.220;9.746;2024-03-23T07:06:31;1.10;;;1.10;;
16177;SDS011;8195;51.220;9.746;2024-03-23T07:10:51;1.20;;;1.10;;
16177;SDS011;8195;51.220;9.746;2024-03-23T07:15:13;2.50;;;1.10;;
16177;SDS011;8195;51.220;9.746;2024-03-23T07:19:33;0.93;;;0.93;;
16177;SDS011;8195;51.220;9.746;2024-03-23T07:23:54;1.53;;;1.10;;
16177;SDS011;8195;51.220;9.746;2024-03-23T07:28:14;2.00;;;1.67;;
16177;SDS011;8195;51.220;9.746;2024-03-23T07:32:35;3.50;;;2.13;;
16177;SDS011;8195;51.220;9.746;2024-03-23T07:36:55;1.97;;;1.87;;
16177;SDS011;8195;51.220;9.746;2024-03-23T07:41:16;3.67;;;1.90;;
16177;SDS011;8195;51.220;9.746;2024-03-23T07:45:38;1.90;;;1.80;;
16177;SDS011;8195;51.220;9.746;2024-03-23T07:49:58;2.20;;;1.90;;
16177;SDS011;8195;51.220;9.746;2024-03-23T07:54:18;2.90;;;1.83;;
16177;SDS011;8195;51.220;9.746;2024-03-23T07:58:39;2.73;;;1.80;;
16177;SDS011;8195;51.220;9.746;2024-03-23T08:03:00;4.53;;;2.30;;
16177;SDS011;8195;51.220;9.746;2024-03-23T08:07:20;1.80;;;1.70;;
16177;SDS011;8195;51.220;9.746;2024-03-23T08:11:40;3.43;;;2.10;;
16177;SDS011;8195;51.220;9.746;2024-03-23T08:16:01;3.00;;;2.20;;
16177;SDS011;8195;51.220;9.746;2024-03-23T08:20:23;3.30;;;1.90;;
16177;SDS011;8195;51.220;9.746;2024-03-23T08:24:43;2.67;;;1.70;;
16177;SDS011;8195;51.220;9.746;2024-03-23T08:29:03;2.10;;;1.90;;
16177;SDS011;8195;51.220;9.746;2024-03-23T08:33:24;3.20;;;2.00;;
16177;SDS011;8195;51.220;9.746;2024-03-23T08:37:44;4.03;;;1.97;;
16177;SDS011;8195;51.220;9.746;2024-03-23T08:42:04;5.77;;;2.70;;
16177;SDS011;8195;51.220;9.746;2024-03-23T08:46:25;3.93;;;3.37;;
16177;SDS011;8195;51.220;9.746;2024-03-23T08:50:46;4.43;;;3.10;;
16177;SDS011;8195;51.220;9.746;2024-03-23T08:55:07;7.40;;;4.40;;
16177;SDS011;8195;51.220;9.746;2024-03-23T08:59:27;6.53;;;4.50;;
16177;SDS011;8195;51.220;9.746;2024-03-23T09:03:48;10.17;;;4.87;;
16177;SDS011;8195;51.220;9.746;2024-03-23T09:08:08;9.43;;;6.70;;
16177;SDS011;8195;51.220;9.746;2024-03-23T09:12:28;11.87;;;7.43;;
16177;SDS011;8195;51.220;9.746;2024-03-23T09:16:52;11.17;;;6.60;;
16177;SDS011;8195;51.220;9.746;2024-03-23T09:21:12;11.37;;;7.63;;
16177;SDS011;8195;51.220;9.746;2024-03-23T09:25:36;11.70;;;7.97;;
16177;SDS011;8195;51.220;9.746;2024-03-23T09:29:59;11.70;;;8.03;;
16177;SDS011;8195;51.220;9.746;2024-03-23T09:34:19;12.40;;;7.30;;
16177;SDS011;8195;51.220;9.746;2024-03-23T09:38:40;10.20;;;6.70;;
16177;SDS011;8195;51.220;9.746;2024-03-23T09:43:01;9.90;;;7.00;;
16177;SDS011;8195;51.220;9.746;2024-03-23T09:47:21;8.90;;;6.13;;
16177;SDS011;8195;51.220;9.746;2024-03-23T09:51:41;9.10;;;5.17;;
16177;SDS011;8195;51.220;9.746;2024-03-23T09:56:02;9.53;;;5.40;;
16177;SDS011;8195;51.220;9.746;2024-03-23T10:00:23;7.53;;;5.63;;
16177;SDS011;8195;51.220;9.746;2024-03-23T10:04:43;6.87;;;5.40;;
16177;SDS011;8195;51.220;9.746;2024-03-23T10:09:05;6.07;;;4.67;;
16177;SDS011;8195;51.220;9.746;2024-03-23T10:13:36;4.60;;;3.63;;
16177;SDS011;8195;51.220;9.746;2024-03-23T10:18:19;4.97;;;3.60;;
16177;SDS011;8195;51.220;9.746;2024-03-23T10:22:40;4.83;;;4.23;;
16177;SDS011;8195;51.220;9.746;2024-03-23T10:27:00;7.70;;;5.20;;
16177;SDS011;8195;51.220;9.746;2024-03-23T10:31:21;7.20;;;5.87;;
16177;SDS011;8195;51.220;9.746;2024-03-23T10:35:41;6.83;;;5.77;;
16177;SDS011;8195;51.220;9.746;2024-03-23T10:40:02;7.50;;;6.60;;
16177;SDS011;8195;51.220;9.746;2024-03-23T10:44:24;8.80;;;6.30;;
16177;SDS011;8195;51.220;9.746;2024-03-23T10:48:44;7.80;;;6.50;;
16177;SDS011;8195;51.220;9.746;2024-03-23T10:53:05;7.67;;;5.93;;
16177;SDS011;8195;51.220;9.746;2024-03-23T10:57:37;6.87;;;6.17;;
16177;SDS011;8195;51.220;9.746;2024-03-23T11:02:00;7.27;;;5.40;;
16177;SDS011;8195;51.220;9.746;2024-03-23T11:06:36;6.10;;;5.50;;
16177;SDS011;8195;51.220;9.746;2024-03-23T11:11:31;6.43;;;5.63;;
16177;SDS011;8195;51.220;9.746;2024-03-23T11:15:44;8.50;;;5.60;;
16177;SDS011;8195;51.220;9.746;2024-03-23T11:20:05;6.07;;;5.13;;
16177;SDS011;8195;51.220;9.746;2024-03-23T11:24:26;8.33;;;5.07;;
16177;SDS011;8195;51.220;9.746;2024-03-23T11:28:46;5.57;;;4.83;;
16177;SDS011;8195;51.220;9.746;2024-03-23T11:33:07;8.93;;;5.20;;
16177;SDS011;8195;51.220;9.746;2024-03-23T11:37:28;7.10;;;4.53;;
16177;SDS011;8195;51.220;9.746;2024-03-23T11:41:48;7.03;;;4.13;;
16177;SDS011;8195;51.220;9.746;2024-03-23T11:46:10;6.80;;;3.30;;
16177;SDS011;8195;51.220;9.746;2024-03-23T11:50:30;3.90;;;2.60;;
16177;SDS011;8195;51.220;9.746;2024-03-23T11:54:50;4.00;;;3.00;;
16177;SDS011;8195;51.220;9.746;2024-03-23T11:59:10;2.83;;;2.63;;
16177;SDS011;8195;51.220;9.746;2024-03-23T12:03:31;4.20;;;2.63;;
16177;SDS011;8195;51.220;9.746;2024-03-23T12:07:52;2.80;;;2.60;;
16177;SDS011;8195;51.220;9.746;2024-03-23T12:12:16;4.37;;;2.87;;
16177;SDS011;8195;51.220;9.746;2024-03-23T12:16:36;5.40;;;3.30;;
16177;SDS011;8195;51.220;9.746;2024-03-23T12:20:57;4.63;;;3.47;;
16177;SDS011;8195;51.220;9.746;2024-03-23T12:25:17;3.67;;;2.93;;
16177;SDS011;8195;51.220;9.746;2024-03-23T12:29:37;2.00;;;1.53;;
16177;SDS011;8195;51.220;9.746;2024-03-23T12:33:58;1.00;;;0.93;;
16177;SDS011;8195;51.220;9.746;2024-03-23T12:38:18;2.33;;;1.30;;
16177;SDS011;8195;51.220;9.746;2024-03-23T12:42:38;1.07;;;1.00;;
16177;SDS011;8195;51.220;9.746;2024-03-23T12:46:58;2.37;;;1.30;;
16177;SDS011;8195;51.220;9.746;2024-03-23T12:51:19;1.07;;;1.00;;
16177;SDS011;8195;51.220;9.746;2024-03-23T12:55:39;1.33;;;1.07;;
16177;SDS011;8195;51.220;9.746;2024-03-23T12:59:59;2.27;;;1.30;;
16177;SDS011;8195;51.220;9.746;2024-03-23T13:04:20;1.77;;;1.50;;
16177;SDS011;8195;51.220;9.746;2024-03-23T13:08:40;2.40;;;1.93;;
16177;SDS011;8195;51.220;9.746;2024-03-23T13:13:00;3.87;;;2.73;;
16177;SDS011;8195;51.220;9.746;2024-03-23T13:17:20;2.77;;;2.57;;
16177;SDS011;8195;51.220;9.746;2024-03-23T13:21:41;3.00;;;2.80;;
16177;SDS011;8195;51.220;9.746;2024-03-23T13:26:01;2.60;;;2.23;;
16177;SDS011;8195;51.220;9.746;2024-03-23T13:30:21;3.27;;;2.97;;
16177;SDS011;8195;51.220;9.746;2024-03-23T13:34:42;4.40;;;2.87;;
16177;SDS011;8195;51.220;9.746;2024-03-23T13:39:03;3.40;;;3.00;;
16177;SDS011;8195;51.220;9.746;2024-03-23T13:43:23;3.30;;;2.97;;
16177;SDS011;8195;51.220;9.746;2024-03-23T13:47:44;4.50;;;3.00;;
16177;SDS011;8195;51.220;9.746;2024-03-23T13:52:05;4.57;;;3.10;;
16177;SDS011;8195;51.220;9.746;2024-03-23T13:56:25;3.87;;;2.97;;
16177;SDS011;8195;51.220;9.746;2024-03-23T14:00:46;3.47;;;3.17;;
16177;SDS011;8195;51.220;9.746;2024-03-23T14:05:06;3.17;;;2.87;;
16177;SDS011;8195;51.220;9.746;2024-03-23T14:09:27;4.83;;;2.70;;
16177;SDS011;8195;51.220;9.746;2024-03-23T14:13:47;2.67;;;2.47;;
16177;SDS011;8195;51.220;9.746;2024-03-23T14:18:07;2.97;;;2.53;;
16177;SDS011;8195;51.220;9.746;2024-03-23T14:22:28;2.67;;;2.47;;
16177;SDS011;8195;51.220;9.746;2024-03-23T14:26:48;3.90;;;2.03;;
16177;SDS011;8195;51.220;9.746;2024-03-23T14:31:08;4.60;;;2.50;;
16177;SDS011;8195;51.220;9.746;2024-03-23T14:35:29;3.10;;;2.80;;
16177;SDS011;8195;51.220;9.746;2024-03-23T14:39:49;4.13;;;2.37;;
16177;SDS011;8195;51.220;9.746;2024-03-23T14:44:09;2.90;;;2.60;;
16177;SDS011;8195;51.220;9.746;2024-03-23T14:48:30;4.03;;;2.33;;
16177;SDS011;8195;51.220;9.746;2024-03-23T14:52:50;2.43;;;2.23;;
16177;SDS011;8195;51.220;9.746;2024-03-23T14:57:10;2.40;;;2.20;;
16177;SDS011;8195;51.220;9.746;2024-03-23T15:01:31;3.13;;;2.10;;
16177;SDS011;8195;51.220;9.746;2024-03-23T15:05:52;2.13;;;2.03;;
16177;SDS011;8195;51.220;9.746;2024-03-23T15:10:13;2.30;;;2.10;;
16177;SDS011;8195;51.220;9.746;2024-03-23T15:14:33;2.83;;;2.47;;
16177;SDS011;8195;51.220;9.746;2024-03-23T15:18:53;2.53;;;2.10;;
16177;SDS011;8195;51.220;9.746;2024-03-23T15:23:14;3.23;;;2.17;;
16177;SDS011;8195;51.220;9.746;2024-03-23T15:27:34;3.53;;;1.73;;
16177;SDS011;8195;51.220;9.746;2024-03-23T15:31:54;2.87;;;1.80;;
16177;SDS011;8195;51.220;9.746;2024-03-23T15:36:15;3.83;;;2.03;;
16177;SDS011;8195;51.220;9.746;2024-03-23T15:40:35;3.03;;;1.90;;
16177;SDS011;8195;51.220;9.746;2024-03-23T15:44:56;1.90;;;1.80;;
16177;SDS011;8195;51.220;9.746;2024-03-23T15:49:16;3.40;;;1.80;;
16177;SDS011;8195;51.220;9.746;2024-03-23T15:53:36;2.90;;;1.53;;
16177;SDS011;8195;51.220;9.746;2024-03-23T15:57:57;3.10;;;1.70;;
16177;SDS011;8195;51.220;9.746;2024-03-23T16:02:17;1.60;;;1.50;;
16177;SDS011;8195;51.220;9.746;2024-03-23T16:06:37;1.90;;;1.40;;
16177;SDS011;8195;51.220;9.746;2024-03-23T16:15:22;1.37;;;1.23;;
16177;SDS011;8195;51.220;9.746;2024-03-23T16:19:42;2.83;;;1.40;;
16177;SDS011;8195;51.220;9.746;2024-03-23T16:24:03;1.00;;;0.80;;
16177;SDS011;8195;51.220;9.746;2024-03-23T16:28:24;1.20;;;1.10;;
16177;SDS011;8195;51.220;9.746;2024-03-23T16:32:45;1.17;;;1.07;;
16177;SDS011;8195;51.220;9.746;2024-03-23T16:37:05;1.20;;;1.10;;
16177;SDS011;8195;51.220;9.746;2024-03-23T16:41:25;1.90;;;1.17;;
16177;SDS011;8195;51.220;9.746;2024-03-23T16:45:58;1.37;;;1.20;;
16177;SDS011;8195;51.220;9.746;2024-03-23T16:50:19;1.87;;;1.17;;
16177;SDS011;8195;51.220;9.746;2024-03-23T16:54:39;1.53;;;1.30;;
16177;SDS011;8195;51.220;9.746;2024-03-23T16:58:59;1.37;;;1.10;;
16177;SDS011;8195;51.220;9.746;2024-03-23T17:03:20;3.70;;;1.40;;
16177;SDS011;8195;51.220;9.746;2024-03-23T17:07:40;1.47;;;1.33;;
16177;SDS011;8195;51.220;9.746;2024-03-23T17:12:00;1.80;;;1.50;;
16177;SDS011;8195;51.220;9.746;2024-03-23T17:16:21;3.60;;;3.30;;
16177;SDS011;8195;51.220;9.746;2024-03-23T17:20:41;3.23;;;2.70;;
16177;SDS011;8195;51.220;9.746;2024-03-23T17:25:01;3.37;;;2.87;;
16177;SDS011;8195;51.220;9.746;2024-03-23T17:29:22;2.20;;;2.00;;
16177;SDS011;8195;51.220;9.746;2024-03-23T17:33:42;4.97;;;3.93;;
16177;SDS011;8195;51.220;9.746;2024-03-23T17:38:02;6.13;;;3.20;;
16177;SDS011;8195;51.220;9.746;2024-03-23T17:42:23;3.07;;;2.20;;
16177;SDS011;8195;51.220;9.746;2024-03-23T17:46:43;3.37;;;2.77;;
16177;SDS011;8195;51.220;9.746;2024-03-23T17:51:03;3.00;;;1.40;;
16177;SDS011;8195;51.220;9.746;2024-03-23T17:55:24;1.40;;;1.30;;
16177;SDS011;8195;51.220;9.746;2024-03-23T17:59:45;1.43;;;1.20;;
16177;SDS011;8195;51.220;9.746;2024-03-23T18:04:05;2.20;;;1.80;;
16177;SDS011;8195;51.220;9.746;2024-03-23T18:08:26;3.87;;;1.60;;
16177;SDS011;8195;51.220;9.746;2024-03-23T18:12:46;2.17;;;1.60;;
16177;SDS011;8195;51.220;9.746;2024-03-23T18:17:06;3.70;;;2.00;;
16177;SDS011;8195;51.220;9.746;2024-03-23T18:21:27;4.07;;;2.60;;
16177;SDS011;8195;51.220;9.746;2024-03-23T18:25:53;2.43;;;1.90;;
16177;SDS011;8195;51.220;9.746;2024-03-23T18:30:15;2.30;;;2.10;;
16177;SDS011;8195;51.220;9.746;2024-03-23T18:34:36;3.33;;;1.50;;
16177;SDS011;8195;51.220;9.746;2024-03-23T18:38:56;3.50;;;2.07;;
16177;SDS011;8195;51.220;9.746;2024-03-23T18:43:16;4.50;;;2.00;;
16177;SDS011;8195;51.220;9.746;2024-03-23T18:47:38;4.90;;;2.23;;
16177;SDS011;8195;51.220;9.746;2024-03-23T18:52:01;2.43;;;2.23;;
16177;SDS011;8195;51.220;9.746;2024-03-23T18:56:21;4.03;;;2.60;;
16177;SDS011;8195;51.220;9.746;2024-03-23T19:00:45;3.57;;;2.90;;
16177;SDS011;8195;51.220;9.746;2024-03-23T19:05:15;3.93;;;2.90;;
16177;SDS011;8195;51.220;9.746;2024-03-23T19:09:35;3.57;;;3.27;;
16177;SDS011;8195;51.220;9.746;2024-03-23T19:13:54;3.80;;;3.03;;
